sensor_id;sensor_type;location;lat;lon;timestamp;pressure;altitude;pressure_sealevel;temperature;humidity
56912;BME280;42800;53.928;27.662;2023-12-04T00:00:40;98451.41;;;-7.67;100.00
56912;BME280;42800;53.928;27.662;2023-12-04T00:03:06;98454.63;;;-7.65;100.00
56912;BME280;42800;53.928;27.662;2023-12-04T00:05:33;98457.31;;;-7.60;100.00
56912;BME280;42800;53.928;27.662;2023-12-04T00:07:59;98437.84;;;-7.60;100.00
56912;BME280;42800;53.928;27.662;2023-12-04T00:10:25;98429.06;;;-7.61;100.00
56912;BME280;42800;53.928;27.662;2023-12-04T00:12:52;98430.72;;;-7.49;100.00
56912;BME280;42800;53.928;27.662;2023-12-04T00:15:19;98409.66;;;-7.51;100.00
56912;BME280;42800;53.928;27.662;2023-12-04T00:17:45;98411.53;;;-7.41;100.00
56912;BME280;42800;53.928;27.662;2023-12-04T00:20:12;98398.22;;;-7.41;100.00
56912;BME280;42800;53.928;27.662;2023-12-04T00:22:38;98393.94;;;-7.37;100.00
56912;BME280;42800;53.928;27.662;2023-12-04T00:25:06;98418.19;;;-7.34;100.00
56912;BME280;42800;53.928;27.662;2023-12-04T00:27:32;98458.41;;;-7.20;100.00
56912;BME280;42800;53.928;27.662;2023-12-04T00:29:59;98471.19;;;-7.12;100.00
56912;BME280;42800;53.928;27.662;2023-12-04T00:32:26;98464.28;;;-7.02;100.00
56912;BME280;42800;53.928;27.662;2023-12-04T00:34:52;98461.09;;;-6.99;100.00
56912;BME280;42800;53.928;27.662;2023-12-04T00:37:18;98445.09;;;-7.04;100.00
56912;BME280;42800;53.928;27.662;2023-12-04T00:39:45;98448.53;;;-6.89;100.00
56912;BME280;42800;53.928;27.662;2023-12-04T00:42:11;98437.31;;;-6.80;100.00
56912;BME280;42800;53.928;27.662;2023-12-04T00:44:37;98406.69;;;-6.83;100.00
56912;BME280;42800;53.928;27.662;2023-12-04T00:47:04;98395.75;;;-6.81;100.00
56912;BME280;42800;53.928;27.662;2023-12-04T00:49:31;98380.03;;;-6.78;100.00
56912;BME280;42800;53.928;27.662;2023-12-04T00:51:57;98374.16;;;-6.75;100.00
56912;BME280;42800;53.928;27.662;2023-12-04T00:54:23;98363.47;;;-6.70;100.00
56912;BME280;42800;53.928;27.662;2023-12-04T00:56:50;98338.41;;;-6.69;100.00
56912;BME280;42800;53.928;27.662;2023-12-04T00:59:16;98326.66;;;-6.63;100.00
56912;BME280;42800;53.928;27.662;2023-12-04T01:01:42;98316.00;;;-6.68;100.00
56912;BME280;42800;53.928;27.662;2023-12-04T01:04:09;98298.66;;;-6.60;100.00
56912;BME280;42800;53.928;27.662;2023-12-04T01:06:36;98284.56;;;-6.71;100.00
56912;BME280;42800;53.928;27.662;2023-12-04T01:09:02;98307.66;;;-6.46;100.00
56912;BME280;42800;53.928;27.662;2023-12-04T01:11:28;98330.81;;;-6.36;100.00
56912;BME280;42800;53.928;27.662;2023-12-04T01:13:55;98351.81;;;-6.24;100.00
56912;BME280;42800;53.928;27.662;2023-12-04T01:16:21;98353.09;;;-6.17;100.00
56912;BME280;42800;53.928;27.662;2023-12-04T01:18:47;98353.09;;;-6.17;100.00
56912;BME280;42800;53.928;27.662;2023-12-04T01:21:14;98335.75;;;-6.14;100.00
56912;BME280;42800;53.928;27.662;2023-12-04T01:23:41;98325.56;;;-6.07;100.00
56912;BME280;42800;53.928;27.662;2023-12-04T01:26:07;98303.47;;;-6.12;100.00
56912;BME280;42800;53.928;27.662;2023-12-04T01:28:36;98303.50;;;-6.18;100.00
56912;BME280;42800;53.928;27.662;2023-12-04T01:31:02;98311.72;;;-6.14;100.00
56912;BME280;42800;53.928;27.662;2023-12-04T01:33:30;98304.50;;;-6.08;100.00
56912;BME280;42800;53.928;27.662;2023-12-04T01:35:56;98303.41;;;-6.07;100.00
56912;BME280;42800;53.928;27.662;2023-12-04T01:38:22;98308.94;;;-5.94;100.00
56912;BME280;42800;53.928;27.662;2023-12-04T01:40:49;98315.53;;;-5.86;100.00
56912;BME280;42800;53.928;27.662;2023-12-04T01:43:16;98310.94;;;-5.80;100.00
56912;BME280;42800;53.928;27.662;2023-12-04T01:45:42;98312.56;;;-5.79;100.00
56912;BME280;42800;53.928;27.662;2023-12-04T01:48:09;98321.84;;;-5.72;100.00
56912;BME280;42800;53.928;27.662;2023-12-04T01:50:36;98337.06;;;-5.77;100.00
56912;BME280;42800;53.928;27.662;2023-12-04T01:53:03;98365.88;;;-5.69;100.00
56912;BME280;42800;53.928;27.662;2023-12-04T01:55:30;98370.47;;;-5.80;100.00
56912;BME280;42800;53.928;27.662;2023-12-04T01:57:59;98383.19;;;-5.67;100.00
56912;BME280;42800;53.928;27.662;2023-12-04T02:00:26;98371.63;;;-5.57;100.00
56912;BME280;42800;53.928;27.662;2023-12-04T02:02:53;98367.16;;;-5.67;100.00
56912;BME280;42800;53.928;27.662;2023-12-04T02:05:20;98346.22;;;-5.49;100.00
56912;BME280;42800;53.928;27.662;2023-12-04T02:07:47;98332.91;;;-5.54;100.00
56912;BME280;42800;53.928;27.662;2023-12-04T02:10:14;98312.56;;;-5.50;100.00
56912;BME280;42800;53.928;27.662;2023-12-04T02:12:41;98300.06;;;-5.55;100.00
56912;BME280;42800;53.928;27.662;2023-12-04T02:15:08;98294.16;;;-5.52;100.00
56912;BME280;42800;53.928;27.662;2023-12-04T02:17:35;98292.50;;;-5.48;100.00
56912;BME280;42800;53.928;27.662;2023-12-04T02:20:03;98276.00;;;-5.50;100.00
56912;BME280;42800;53.928;27.662;2023-12-04T02:22:30;98267.97;;;-5.50;100.00
56912;BME280;42800;53.928;27.662;2023-12-04T02:24:57;98266.09;;;-5.49;100.00
56912;BME280;42800;53.928;27.662;2023-12-04T02:27:28;98270.66;;;-5.50;100.00
56912;BME280;42800;53.928;27.662;2023-12-04T02:29:58;98275.41;;;-5.47;100.00
56912;BME280;42800;53.928;27.662;2023-12-04T02:32:27;98269.88;;;-5.55;100.00
56912;BME280;42800;53.928;27.662;2023-12-04T02:34:55;98271.25;;;-5.58;100.00
56912;BME280;42800;53.928;27.662;2023-12-04T02:37:23;98262.63;;;-5.50;100.00
56912;BME280;42800;53.928;27.662;2023-12-04T02:39:50;98271.63;;;-5.70;100.00
56912;BME280;42800;53.928;27.662;2023-12-04T02:42:19;98269.66;;;-5.59;100.00
56912;BME280;42800;53.928;27.662;2023-12-04T02:44:45;98273.69;;;-5.61;100.00
56912;BME280;42800;53.928;27.662;2023-12-04T02:47:12;98263.75;;;-5.56;100.00
56912;BME280;42800;53.928;27.662;2023-12-04T02:49:38;98264.72;;;-5.47;100.00
56912;BME280;42800;53.928;27.662;2023-12-04T02:52:05;98242.84;;;-5.49;100.00
56912;BME280;42800;53.928;27.662;2023-12-04T02:54:31;98233.16;;;-5.69;100.00
56912;BME280;42800;53.928;27.662;2023-12-04T02:56:57;98256.84;;;-5.91;100.00
56912;BME280;42800;53.928;27.662;2023-12-04T02:59:24;98326.69;;;-5.79;100.00
56912;BME280;42800;53.928;27.662;2023-12-04T03:01:51;98336.75;;;-5.65;100.00
56912;BME280;42800;53.928;27.662;2023-12-04T03:04:18;98325.88;;;-5.45;100.00
56912;BME280;42800;53.928;27.662;2023-12-04T03:06:45;98311.75;;;-5.46;100.00
56912;BME280;42800;53.928;27.662;2023-12-04T03:09:11;98310.66;;;-5.45;100.00
56912;BME280;42800;53.928;27.662;2023-12-04T03:11:40;98315.28;;;-5.55;100.00
56912;BME280;42800;53.928;27.662;2023-12-04T03:14:06;98347.84;;;-5.53;100.00
56912;BME280;42800;53.928;27.662;2023-12-04T03:16:34;98392.47;;;-5.93;100.00
56912;BME280;42800;53.928;27.662;2023-12-04T03:19:00;98486.53;;;-5.67;100.00
56912;BME280;42800;53.928;27.662;2023-12-04T03:21:26;98489.72;;;-5.65;100.00
56912;BME280;42800;53.928;27.662;2023-12-04T03:23:54;98532.34;;;-5.39;100.00
56912;BME280;42800;53.928;27.662;2023-12-04T03:26:20;98536.97;;;-5.60;100.00
56912;BME280;42800;53.928;27.662;2023-12-04T03:28:47;98546.09;;;-5.72;100.00
56912;BME280;42800;53.928;27.662;2023-12-04T03:31:13;98582.09;;;-5.59;100.00
56912;BME280;42800;53.928;27.662;2023-12-04T03:33:40;98571.19;;;-5.68;100.00
56912;BME280;42800;53.928;27.662;2023-12-04T03:36:07;98588.75;;;-5.51;100.00
56912;BME280;42800;53.928;27.662;2023-12-04T03:38:34;98610.38;;;-5.48;100.00
56912;BME280;42800;53.928;27.662;2023-12-04T03:41:00;98631.22;;;-5.50;100.00
56912;BME280;42800;53.928;27.662;2023-12-04T03:43:26;98658.47;;;-5.58;100.00
56912;BME280;42800;53.928;27.662;2023-12-04T03:45:53;98661.41;;;-5.54;100.00
56912;BME280;42800;53.928;27.662;2023-12-04T03:48:19;98663.56;;;-5.61;100.00
56912;BME280;42800;53.928;27.662;2023-12-04T03:50:46;98697.44;;;-5.47;100.00
56912;BME280;42800;53.928;27.662;2023-12-04T03:53:12;98684.50;;;-5.99;100.00
56912;BME280;42800;53.928;27.662;2023-12-04T03:55:39;98752.50;;;-5.66;100.00
56912;BME280;42800;53.928;27.662;2023-12-04T03:58:06;98773.88;;;-5.97;100.00
56912;BME280;42800;53.928;27.662;2023-12-04T04:00:32;98814.44;;;-5.74;100.00
56912;BME280;42800;53.928;27.662;2023-12-04T04:02:58;98854.50;;;-5.59;100.00
56912;BME280;42800;53.928;27.662;2023-12-04T04:05:24;98847.84;;;-5.56;100.00
56912;BME280;42800;53.928;27.662;2023-12-04T04:07:51;98847.31;;;-5.58;100.00
56912;BME280;42800;53.928;27.662;2023-12-04T04:10:18;98873.19;;;-5.89;100.00
56912;BME280;42800;53.928;27.662;2023-12-04T04:12:44;98924.41;;;-5.98;100.00
56912;BME280;42800;53.928;27.662;2023-12-04T04:15:11;98986.94;;;-5.78;100.00
56912;BME280;42800;53.928;27.662;2023-12-04T04:17:37;98987.16;;;-5.85;100.00
56912;BME280;42800;53.928;27.662;2023-12-04T04:20:05;99031.22;;;-5.87;100.00
56912;BME280;42800;53.928;27.662;2023-12-04T04:22:31;99053.69;;;-5.73;100.00
56912;BME280;42800;53.928;27.662;2023-12-04T04:25:00;99073.81;;;-5.55;100.00
56912;BME280;42800;53.928;27.662;2023-12-04T04:27:27;99059.50;;;-5.18;100.00
56912;BME280;42800;53.928;27.662;2023-12-04T04:29:53;99018.84;;;-5.21;100.00
56912;BME280;42800;53.928;27.662;2023-12-04T04:32:19;99016.31;;;-5.73;100.00
56912;BME280;42800;53.928;27.662;2023-12-04T04:34:46;99030.75;;;-5.69;100.00
56912;BME280;42800;53.928;27.662;2023-12-04T04:37:12;99065.47;;;-5.64;100.00
56912;BME280;42800;53.928;27.662;2023-12-04T04:39:39;99096.06;;;-5.34;100.00
56912;BME280;42800;53.928;27.662;2023-12-04T04:42:06;99082.34;;;-5.53;100.00
56912;BME280;42800;53.928;27.662;2023-12-04T04:44:33;99103.53;;;-5.36;100.00
56912;BME280;42800;53.928;27.662;2023-12-04T04:47:00;99111.19;;;-5.55;100.00
56912;BME280;42800;53.928;27.662;2023-12-04T04:49:26;99124.59;;;-5.40;100.00
56912;BME280;42800;53.928;27.662;2023-12-04T04:51:52;99140.53;;;-5.03;100.00
56912;BME280;42800;53.928;27.662;2023-12-04T04:54:18;99083.31;;;-4.91;100.00
56912;BME280;42800;53.928;27.662;2023-12-04T04:56:45;99053.88;;;-5.17;100.00
56912;BME280;42800;53.928;27.662;2023-12-04T04:59:12;99049.63;;;-5.13;100.00
56912;BME280;42800;53.928;27.662;2023-12-04T05:01:38;99062.13;;;-5.34;100.00
56912;BME280;42800;53.928;27.662;2023-12-04T05:04:04;99075.50;;;-5.24;100.00
56912;BME280;42800;53.928;27.662;2023-12-04T05:06:31;99101.25;;;-4.87;100.00
56912;BME280;42800;53.928;27.662;2023-12-04T05:08:57;99105.22;;;-5.05;100.00
56912;BME280;42800;53.928;27.662;2023-12-04T05:11:23;99122.63;;;-4.92;100.00
56912;BME280;42800;53.928;27.662;2023-12-04T05:13:50;99133.91;;;-4.80;100.00
56912;BME280;42800;53.928;27.662;2023-12-04T05:16:17;99153.91;;;-4.87;100.00
56912;BME280;42800;53.928;27.662;2023-12-04T05:18:43;99161.66;;;-4.91;100.00
56912;BME280;42800;53.928;27.662;2023-12-04T05:21:10;99184.94;;;-4.91;100.00
56912;BME280;42800;53.928;27.662;2023-12-04T05:23:36;99233.97;;;-4.65;100.00
56912;BME280;42800;53.928;27.662;2023-12-04T05:26:03;99237.22;;;-4.38;100.00
56912;BME280;42800;53.928;27.662;2023-12-04T05:28:29;99193.31;;;-4.62;100.00
56912;BME280;42800;53.928;27.662;2023-12-04T05:30:56;99229.94;;;-4.73;100.00
56912;BME280;42800;53.928;27.662;2023-12-04T05:33:23;99247.63;;;-4.57;100.00
56912;BME280;42800;53.928;27.662;2023-12-04T05:35:49;99251.66;;;-4.59;100.00
56912;BME280;42800;53.928;27.662;2023-12-04T05:38:16;99269.53;;;-4.65;100.00
56912;BME280;42800;53.928;27.662;2023-12-04T05:40:43;99278.22;;;-4.22;100.00
56912;BME280;42800;53.928;27.662;2023-12-04T05:43:09;99271.28;;;-4.08;100.00
56912;BME280;42800;53.928;27.662;2023-12-04T05:45:36;99254.09;;;-4.37;100.00
56912;BME280;42800;53.928;27.662;2023-12-04T05:48:02;99277.94;;;-4.20;100.00
56912;BME280;42800;53.928;27.662;2023-12-04T05:50:29;99282.25;;;-4.19;100.00
56912;BME280;42800;53.928;27.662;2023-12-04T05:52:56;99281.97;;;-4.23;100.00
56912;BME280;42800;53.928;27.662;2023-12-04T05:55:22;99297.25;;;-4.18;100.00
56912;BME280;42800;53.928;27.662;2023-12-04T05:57:48;99310.66;;;-3.98;100.00
56912;BME280;42800;53.928;27.662;2023-12-04T06:00:15;99304.75;;;-4.00;100.00
56912;BME280;42800;53.928;27.662;2023-12-04T06:02:42;99297.81;;;-3.70;100.00
56912;BME280;42800;53.928;27.662;2023-12-04T06:05:09;99273.19;;;-3.52;100.00
56912;BME280;42800;53.928;27.662;2023-12-04T06:07:36;99252.00;;;-3.59;100.00
56912;BME280;42800;53.928;27.662;2023-12-04T06:10:04;99244.19;;;-3.35;100.00
56912;BME280;42800;53.928;27.662;2023-12-04T06:12:31;99205.03;;;-3.25;100.00
56912;BME280;42800;53.928;27.662;2023-12-04T06:14:57;99173.94;;;-3.26;100.00
56912;BME280;42800;53.928;27.662;2023-12-04T06:17:24;99149.78;;;-3.21;100.00
56912;BME280;42800;53.928;27.662;2023-12-04T06:19:50;99146.84;;;-3.30;100.00
56912;BME280;42800;53.928;27.662;2023-12-04T06:22:17;99155.16;;;-3.16;100.00
56912;BME280;42800;53.928;27.662;2023-12-04T06:24:46;99156.44;;;-3.14;100.00
56912;BME280;42800;53.928;27.662;2023-12-04T06:27:15;99164.09;;;-2.81;100.00
56912;BME280;42800;53.928;27.662;2023-12-04T06:29:43;99131.41;;;-2.94;100.00
56912;BME280;42800;53.928;27.662;2023-12-04T06:32:11;99125.25;;;-2.89;100.00
56912;BME280;42800;53.928;27.662;2023-12-04T06:34:38;99121.22;;;-2.97;100.00
56912;BME280;42800;53.928;27.662;2023-12-04T06:37:09;99133.00;;;-2.88;100.00
56912;BME280;42800;53.928;27.662;2023-12-04T06:39:37;99138.41;;;-2.93;100.00
56912;BME280;42800;53.928;27.662;2023-12-04T06:42:05;99145.78;;;-2.74;100.00
56912;BME280;42800;53.928;27.662;2023-12-04T06:44:32;99153.41;;;-2.92;100.00
56912;BME280;42800;53.928;27.662;2023-12-04T06:47:00;99188.91;;;-2.61;100.00
56912;BME280;42800;53.928;27.662;2023-12-04T06:49:28;99167.94;;;-2.53;100.00
56912;BME280;42800;53.928;27.662;2023-12-04T06:51:56;99172.31;;;-2.68;100.00
56912;BME280;42800;53.928;27.662;2023-12-04T06:54:22;99178.78;;;-2.69;100.00
56912;BME280;42800;53.928;27.662;2023-12-04T06:56:48;99172.38;;;-2.73;100.00
56912;BME280;42800;53.928;27.662;2023-12-04T06:59:16;99175.00;;;-2.63;100.00
56912;BME280;42800;53.928;27.662;2023-12-04T07:01:43;99192.97;;;-2.63;100.00
56912;BME280;42800;53.928;27.662;2023-12-04T07:04:09;99183.03;;;-2.63;100.00
56912;BME280;42800;53.928;27.662;2023-12-04T07:06:36;99194.63;;;-2.28;100.00
56912;BME280;42800;53.928;27.662;2023-12-04T07:09:02;99168.75;;;-2.53;100.00
56912;BME280;42800;53.928;27.662;2023-12-04T07:11:29;99158.22;;;-2.44;100.00
56912;BME280;42800;53.928;27.662;2023-12-04T07:13:56;99158.09;;;-2.68;100.00
56912;BME280;42800;53.928;27.662;2023-12-04T07:16:23;99188.22;;;-2.32;100.00
56912;BME280;42800;53.928;27.662;2023-12-04T07:18:49;99159.16;;;-2.25;100.00
56912;BME280;42800;53.928;27.662;2023-12-04T07:21:15;99124.63;;;-2.37;100.00
56912;BME280;42800;53.928;27.662;2023-12-04T07:23:42;99104.66;;;-2.25;100.00
56912;BME280;42800;53.928;27.662;2023-12-04T07:26:08;99107.34;;;-2.25;100.00
56912;BME280;42800;53.928;27.662;2023-12-04T07:28:34;99070.25;;;-2.52;100.00
56912;BME280;42800;53.928;27.662;2023-12-04T07:31:01;99085.56;;;-2.24;100.00
56912;BME280;42800;53.928;27.662;2023-12-04T07:33:28;99071.09;;;-2.28;100.00
56912;BME280;42800;53.928;27.662;2023-12-04T07:35:55;99066.94;;;-2.15;100.00
56912;BME280;42800;53.928;27.662;2023-12-04T07:38:22;99055.75;;;-2.22;100.00
56912;BME280;42800;53.928;27.662;2023-12-04T07:40:48;99070.75;;;-2.21;100.00
56912;BME280;42800;53.928;27.662;2023-12-04T07:43:14;99076.25;;;-2.02;100.00
56912;BME280;42800;53.928;27.662;2023-12-04T07:45:41;99026.13;;;-2.17;100.00
56912;BME280;42800;53.928;27.662;2023-12-04T07:48:07;99007.88;;;-1.91;100.00
56912;BME280;42800;53.928;27.662;2023-12-04T07:50:34;98998.38;;;-2.07;100.00
56912;BME280;42800;53.928;27.662;2023-12-04T07:53:03;99007.88;;;-1.91;100.00
56912;BME280;42800;53.928;27.662;2023-12-04T07:55:30;98989.00;;;-1.86;100.00
56912;BME280;42800;53.928;27.662;2023-12-04T07:57:57;98946.78;;;-2.04;100.00
56912;BME280;42800;53.928;27.662;2023-12-04T08:00:24;98928.63;;;-1.94;100.00
56912;BME280;42800;53.928;27.662;2023-12-04T08:02:51;98934.00;;;-2.13;100.00
56912;BME280;42800;53.928;27.662;2023-12-04T08:05:18;98928.38;;;-2.16;100.00
56912;BME280;42800;53.928;27.662;2023-12-04T08:07:45;98949.25;;;-2.32;100.00
56912;BME280;42800;53.928;27.662;2023-12-04T08:10:11;98989.28;;;-2.11;100.00
56912;BME280;42800;53.928;27.662;2023-12-04T08:12:38;98946.50;;;-1.84;100.00
56912;BME280;42800;53.928;27.662;2023-12-04T08:15:06;98862.84;;;-1.77;100.00
56912;BME280;42800;53.928;27.662;2023-12-04T08:17:32;98790.91;;;-1.99;100.00
56912;BME280;42800;53.928;27.662;2023-12-04T08:19:59;98789.59;;;-1.83;100.00
56912;BME280;42800;53.928;27.662;2023-12-04T08:22:26;98732.91;;;-1.68;100.00
56912;BME280;42800;53.928;27.662;2023-12-04T08:24:53;98666.13;;;-1.47;100.00
56912;BME280;42800;53.928;27.662;2023-12-04T08:27:19;98607.38;;;-1.67;100.00
56912;BME280;42800;53.928;27.662;2023-12-04T08:29:45;98597.31;;;-1.48;100.00
56912;BME280;42800;53.928;27.662;2023-12-04T08:32:12;98535.72;;;-1.85;100.00
56912;BME280;42800;53.928;27.662;2023-12-04T08:34:38;98557.50;;;-1.46;100.00
56912;BME280;42800;53.928;27.662;2023-12-04T08:37:04;98536.63;;;-1.76;100.00
56912;BME280;42800;53.928;27.662;2023-12-04T08:39:31;98537.81;;;-1.82;100.00
56912;BME280;42800;53.928;27.662;2023-12-04T08:41:58;98536.31;;;-1.61;100.00
56912;BME280;42800;53.928;27.662;2023-12-04T08:44:24;98521.00;;;-1.88;100.00
56912;BME280;42800;53.928;27.662;2023-12-04T08:46:50;98537.31;;;-1.43;100.00
56912;BME280;42800;53.928;27.662;2023-12-04T08:49:17;98542.00;;;-1.76;100.00
56912;BME280;42800;53.928;27.662;2023-12-04T08:51:43;98502.16;;;-1.60;100.00
56912;BME280;42800;53.928;27.662;2023-12-04T08:54:09;98479.56;;;-1.59;100.00
56912;BME280;42800;53.928;27.662;2023-12-04T08:56:36;98448.03;;;-1.31;100.00
56912;BME280;42800;53.928;27.662;2023-12-04T08:59:03;98405.91;;;-1.58;100.00
56912;BME280;42800;53.928;27.662;2023-12-04T09:01:29;98399.91;;;-1.92;100.00
56912;BME280;42800;53.928;27.662;2023-12-04T09:03:56;98446.84;;;-1.75;100.00
56912;BME280;42800;53.928;27.662;2023-12-04T09:06:22;98454.94;;;-1.39;100.00
56912;BME280;42800;53.928;27.662;2023-12-04T09:08:48;98393.47;;;-1.68;100.00
56912;BME280;42800;53.928;27.662;2023-12-04T09:11:15;98373.56;;;-1.67;100.00
56912;BME280;42800;53.928;27.662;2023-12-04T09:13:41;98404.81;;;-1.71;100.00
56912;BME280;42800;53.928;27.662;2023-12-04T09:16:09;98396.06;;;-1.40;100.00
56912;BME280;42800;53.928;27.662;2023-12-04T09:18:35;98354.47;;;-1.66;100.00
56912;BME280;42800;53.928;27.662;2023-12-04T09:21:02;98362.56;;;-1.57;100.00
56912;BME280;42800;53.928;27.662;2023-12-04T09:23:28;98340.97;;;-1.52;100.00
56912;BME280;42800;53.928;27.662;2023-12-04T09:25:54;98312.94;;;-1.59;100.00
56912;BME280;42800;53.928;27.662;2023-12-04T09:28:21;98318.72;;;-1.66;100.00
56912;BME280;42800;53.928;27.662;2023-12-04T09:30:47;98303.41;;;-1.43;100.00
56912;BME280;42800;53.928;27.662;2023-12-04T09:33:14;98286.94;;;-1.42;100.00
56912;BME280;42800;53.928;27.662;2023-12-04T09:35:40;98264.63;;;-1.73;100.00
56912;BME280;42800;53.928;27.662;2023-12-04T09:38:07;98283.00;;;-1.67;100.00
56912;BME280;42800;53.928;27.662;2023-12-04T09:40:34;98292.06;;;-1.31;100.00
56912;BME280;42800;53.928;27.662;2023-12-04T09:43:01;98277.25;;;-1.74;100.00
56912;BME280;42800;53.928;27.662;2023-12-04T09:45:28;98339.69;;;-1.91;100.00
56912;BME280;42800;53.928;27.662;2023-12-04T09:47:55;98352.00;;;-1.76;100.00
56912;BME280;42800;53.928;27.662;2023-12-04T09:50:23;98363.13;;;-1.69;100.00
56912;BME280;42800;53.928;27.662;2023-12-04T09:52:50;98346.16;;;-1.33;100.00
56912;BME280;42800;53.928;27.662;2023-12-04T09:55:16;98302.03;;;-1.54;100.00
56912;BME280;42800;53.928;27.662;2023-12-04T09:57:43;98275.56;;;-1.38;100.00
56912;BME280;42800;53.928;27.662;2023-12-04T10:00:13;98263.50;;;-1.19;100.00
56912;BME280;42800;53.928;27.662;2023-12-04T10:02:40;98265.41;;;-1.19;100.00
56912;BME280;42800;53.928;27.662;2023-12-04T10:05:07;98273.16;;;-1.49;100.00
56912;BME280;42800;53.928;27.662;2023-12-04T10:07:34;98271.78;;;-1.37;100.00
56912;BME280;42800;53.928;27.662;2023-12-04T10:10:02;98269.25;;;-1.34;100.00
56912;BME280;42800;53.928;27.662;2023-12-04T10:12:30;98272.44;;;-1.32;100.00
56912;BME280;42800;53.928;27.662;2023-12-04T10:15:04;98295.06;;;-1.33;100.00
56912;BME280;42800;53.928;27.662;2023-12-04T10:17:33;98274.53;;;-1.29;100.00
56912;BME280;42800;53.928;27.662;2023-12-04T10:20:05;98298.31;;;-1.67;100.00
56912;BME280;42800;53.928;27.662;2023-12-04T10:22:39;98309.47;;;-1.29;100.00
56912;BME280;42800;53.928;27.662;2023-12-04T10:25:15;98292.38;;;-1.33;100.00
56912;BME280;42800;53.928;27.662;2023-12-04T10:27:41;98279.50;;;-1.45;100.00
56912;BME280;42800;53.928;27.662;2023-12-04T10:30:10;98288.22;;;-1.16;100.00
56912;BME280;42800;53.928;27.662;2023-12-04T10:32:39;98287.69;;;-1.50;100.00
56912;BME280;42800;53.928;27.662;2023-12-04T10:35:06;98329.59;;;-1.49;100.00
56912;BME280;42800;53.928;27.662;2023-12-04T10:37:36;98387.63;;;-1.84;100.00
56912;BME280;42800;53.928;27.662;2023-12-04T10:40:05;98462.78;;;-1.79;100.00
56912;BME280;42800;53.928;27.662;2023-12-04T10:42:34;98510.41;;;-1.57;100.00
56912;BME280;42800;53.928;27.662;2023-12-04T10:45:00;98527.75;;;-1.63;100.00
56912;BME280;42800;53.928;27.662;2023-12-04T10:47:28;98518.88;;;-1.63;100.00
56912;BME280;42800;53.928;27.662;2023-12-04T10:49:56;98534.81;;;-1.53;100.00
56912;BME280;42800;53.928;27.662;2023-12-04T10:52:23;98538.19;;;-1.61;100.00
56912;BME280;42800;53.928;27.662;2023-12-04T10:54:49;98548.16;;;-1.76;100.00
56912;BME280;42800;53.928;27.662;2023-12-04T10:57:22;98587.38;;;-1.47;100.00
56912;BME280;42800;53.928;27.662;2023-12-04T10:59:56;98542.06;;;-1.54;100.00
56912;BME280;42800;53.928;27.662;2023-12-04T11:02:26;98578.44;;;-1.56;100.00
56912;BME280;42800;53.928;27.662;2023-12-04T11:04:55;98629.56;;;-1.75;100.00
56912;BME280;42800;53.928;27.662;2023-12-04T11:07:24;98636.84;;;-1.76;100.00
56912;BME280;42800;53.928;27.662;2023-12-04T11:09:53;98652.84;;;-1.84;100.00
56912;BME280;42800;53.928;27.662;2023-12-04T11:12:25;98635.75;;;-1.47;100.00
56912;BME280;42800;53.928;27.662;2023-12-04T11:14:59;98575.53;;;-1.60;100.00
56912;BME280;42800;53.928;27.662;2023-12-04T11:17:31;98580.50;;;-1.67;100.00
56912;BME280;42800;53.928;27.662;2023-12-04T11:20:07;98605.91;;;-1.73;100.00
56912;BME280;42800;53.928;27.662;2023-12-04T11:22:35;98615.44;;;-1.26;100.00
56912;BME280;42800;53.928;27.662;2023-12-04T11:25:05;98578.28;;;-1.37;100.00
56912;BME280;42800;53.928;27.662;2023-12-04T11:27:34;98568.66;;;-1.38;100.00
56912;BME280;42800;53.928;27.662;2023-12-04T11:30:01;98566.25;;;-1.26;100.00
56912;BME280;42800;53.928;27.662;2023-12-04T11:32:28;98585.00;;;-1.49;100.00
56912;BME280;42800;53.928;27.662;2023-12-04T11:34:55;98596.72;;;-1.45;100.00
56912;BME280;42800;53.928;27.662;2023-12-04T11:37:22;98652.91;;;-1.43;100.00
56912;BME280;42800;53.928;27.662;2023-12-04T11:39:50;98613.66;;;-1.58;100.00
56912;BME280;42800;53.928;27.662;2023-12-04T11:42:19;98648.91;;;-1.59;100.00
56912;BME280;42800;53.928;27.662;2023-12-04T11:44:48;98612.25;;;-1.42;100.00
56912;BME280;42800;53.928;27.662;2023-12-04T11:47:15;98649.00;;;-1.37;100.00
56912;BME280;42800;53.928;27.662;2023-12-04T11:49:42;98605.78;;;-1.13;100.00
56912;BME280;42800;53.928;27.662;2023-12-04T11:52:08;98551.00;;;-1.31;100.00
56912;BME280;42800;53.928;27.662;2023-12-04T11:54:57;98509.66;;;-1.21;100.00
56912;BME280;42800;53.928;27.662;2023-12-04T11:57:24;98490.47;;;-1.42;100.00
56912;BME280;42800;53.928;27.662;2023-12-04T11:59:52;98511.38;;;-1.39;100.00
56912;BME280;42800;53.928;27.662;2023-12-04T12:02:30;98506.25;;;-1.63;100.00
56912;BME280;42800;53.928;27.662;2023-12-04T12:04:58;98545.22;;;-1.24;100.00
56912;BME280;42800;53.928;27.662;2023-12-04T12:07:24;98517.66;;;-1.30;100.00
56912;BME280;42800;53.928;27.662;2023-12-04T12:09:51;98489.72;;;-1.20;100.00
56912;BME280;42800;53.928;27.662;2023-12-04T12:12:17;98485.34;;;-1.16;100.00
56912;BME280;42800;53.928;27.662;2023-12-04T12:14:43;98457.63;;;-0.94;100.00
56912;BME280;42800;53.928;27.662;2023-12-04T12:17:10;98417.34;;;-1.08;100.00
56912;BME280;42800;53.928;27.662;2023-12-04T12:19:37;98411.34;;;-1.05;100.00
56912;BME280;42800;53.928;27.662;2023-12-04T12:22:04;98368.13;;;-1.08;100.00
56912;BME280;42800;53.928;27.662;2023-12-04T12:24:30;98343.03;;;-0.95;100.00
56912;BME280;42800;53.928;27.662;2023-12-04T12:26:57;98316.81;;;-0.89;100.00
56912;BME280;42800;53.928;27.662;2023-12-04T12:29:23;98336.28;;;-1.15;100.00
56912;BME280;42800;53.928;27.662;2023-12-04T12:31:50;98340.34;;;-0.95;100.00
56912;BME280;42800;53.928;27.662;2023-12-04T12:34:17;98307.25;;;-1.27;100.00
56912;BME280;42800;53.928;27.662;2023-12-04T12:36:44;98337.31;;;-1.56;100.00
56912;BME280;42800;53.928;27.662;2023-12-04T12:39:10;98363.44;;;-1.25;100.00